createdAt,value
2022-12-29T00:00:04.120Z,97487.63
2022-12-29T00:02:32.450Z,97485.00
2022-12-29T00:05:00.739Z,97483.34
2022-12-29T00:07:29.052Z,97482.50
2022-12-29T00:09:57.293Z,97485.13
2022-12-29T00:12:25.531Z,97482.63
2022-12-29T00:15:11.359Z,97475.81
2022-12-29T00:17:41.000Z,97471.72
2022-12-29T00:20:39.319Z,97473.56
2022-12-29T00:23:24.717Z,97472.81
2022-12-29T00:26:10.277Z,97475.69
2022-12-29T00:28:56.044Z,97469.69
2022-12-29T00:31:41.638Z,97466.38
2022-12-29T00:34:31.159Z,97465.75
2022-12-29T00:36:59.659Z,97469.22
2022-12-29T00:39:45.167Z,97473.75
2022-12-29T00:42:36.086Z,97473.88
2022-12-29T00:45:04.601Z,97478.44
2022-12-29T00:47:32.831Z,97476.75
2022-12-29T00:50:01.459Z,97479.38
2022-12-29T00:52:29.718Z,97482.84
2022-12-29T00:54:58.007Z,97476.75
2022-12-29T00:57:26.297Z,97471.59
2022-12-29T00:59:54.525Z,97464.81
2022-12-29T01:02:22.860Z,97466.59
2022-12-29T01:04:51.104Z,97464.06
2022-12-29T01:07:20.692Z,97473.88
2022-12-29T01:10:06.476Z,97473.16
2022-12-29T01:12:46.247Z,97469.78
2022-12-29T01:15:16.729Z,97469.22
2022-12-29T01:17:45.217Z,97471.00
2022-12-29T01:20:14.086Z,97475.50
2022-12-29T01:22:44.766Z,97476.34
2022-12-29T01:25:13.004Z,97475.50
2022-12-29T01:27:42.309Z,97471.09
2022-12-29T01:30:11.959Z,97469.56
2022-12-29T01:32:40.182Z,97480.19
2022-12-29T01:35:09.210Z,97480.41
2022-12-29T01:37:37.481Z,97483.97
2022-12-29T01:40:08.554Z,97481.47
2022-12-29T01:42:36.773Z,97473.69
2022-12-29T01:45:11.251Z,97469.53
2022-12-29T01:47:44.056Z,97467.13
2022-12-29T01:50:17.004Z,97463.88
2022-12-29T01:52:55.428Z,97453.75
2022-12-29T01:55:25.748Z,97449.56
2022-12-29T01:57:55.601Z,97448.13
2022-12-29T02:00:24.158Z,97455.16
2022-12-29T02:02:54.768Z,97443.22
2022-12-29T02:05:30.234Z,97444.19
2022-12-29T02:07:58.806Z,97442.47
2022-12-29T02:10:32.832Z,97429.47
2022-12-29T02:13:02.061Z,97429.59
2022-12-29T02:15:50.998Z,97440.19
2022-12-29T02:18:35.282Z,97436.13
2022-12-29T02:21:48.321Z,97432.91
2022-12-29T02:25:01.977Z,97436.81
2022-12-29T02:28:39.662Z,97430.38
2022-12-29T02:31:19.428Z,97431.53
2022-12-29T02:34:03.480Z,97428.19
2022-12-29T02:36:43.268Z,97435.22
2022-12-29T02:39:24.114Z,97437.84
2022-12-29T02:42:06.094Z,97437.94
2022-12-29T02:44:48.200Z,97437.94
2022-12-29T02:47:24.779Z,97424.94
2022-12-29T02:50:00.797Z,97420.56
2022-12-29T02:52:34.024Z,97408.50
2022-12-29T02:55:01.325Z,97408.50
2022-12-29T02:57:36.051Z,97407.56
2022-12-29T03:00:10.058Z,97415.41
2022-12-29T03:03:10.186Z,97403.25
2022-12-29T03:05:57.099Z,97402.53
2022-12-29T03:08:34.349Z,97400.03
2022-12-29T03:11:06.154Z,97402.53
2022-12-29T03:14:02.575Z,97391.31
2022-12-29T03:16:37.418Z,97393.13
2022-12-29T03:19:12.880Z,97391.41
2022-12-29T03:22:04.777Z,97390.59
2022-12-29T03:24:38.685Z,97388.09
2022-12-29T03:27:11.307Z,97391.63
2022-12-29T03:29:47.283Z,97388.22
2022-12-29T03:32:17.558Z,97389.03
2022-12-29T03:34:48.894Z,97385.59
2022-12-29T03:37:20.744Z,97392.50
2022-12-29T03:39:49.359Z,97393.34
2022-12-29T03:42:24.812Z,97392.50
2022-12-29T03:44:56.689Z,97395.13
2022-12-29T03:47:26.217Z,97388.09
2022-12-29T03:49:56.599Z,97384.63
2022-12-29T03:52:24.828Z,97402.88
2022-12-29T03:54:53.049Z,97388.91
2022-12-29T03:57:21.299Z,97399.41
2022-12-29T03:59:49.899Z,97395.84
2022-12-29T04:02:18.517Z,97393.22
2022-12-29T04:04:46.897Z,97393.94
2022-12-29T04:07:16.482Z,97390.38
2022-12-29T04:09:46.355Z,97388.56
2022-12-29T04:12:15.376Z,97377.97
2022-12-29T04:14:43.657Z,97380.47
2022-12-29T04:17:11.916Z,97375.13
2022-12-29T04:19:40.111Z,97375.84
2022-12-29T04:22:08.330Z,97373.91
2022-12-29T04:24:37.973Z,97378.25
2022-12-29T04:27:06.573Z,97388.50
2022-12-29T04:29:35.035Z,97384.19
2022-12-29T04:32:03.263Z,97387.53
2022-12-29T04:34:31.482Z,97398.78
2022-12-29T04:36:59.689Z,97398.66
2022-12-29T04:39:27.904Z,97398.44
2022-12-29T04:41:57.657Z,97401.75
2022-12-29T04:44:25.894Z,97405.97
2022-12-29T04:46:54.186Z,97407.50
2022-12-29T04:49:22.468Z,97397.84
2022-12-29T04:51:50.697Z,97389.75
2022-12-29T04:54:18.934Z,97384.50
2022-12-29T04:56:47.200Z,97373.03
2022-12-29T04:59:16.816Z,97376.41
2022-12-29T05:01:45.751Z,97371.03
2022-12-29T05:04:14.530Z,97364.94
2022-12-29T05:06:42.820Z,97357.78
2022-12-29T05:09:11.138Z,97355.06
2022-12-29T05:11:39.357Z,97358.38
2022-12-29T05:14:07.645Z,97355.75
2022-12-29T05:16:37.346Z,97347.75
2022-12-29T05:19:05.667Z,97353.13
2022-12-29T05:21:33.953Z,97347.06
2022-12-29T05:24:02.228Z,97345.13
2022-12-29T05:26:30.520Z,97341.59
2022-12-29T05:28:58.821Z,97338.97
2022-12-29T05:31:27.178Z,97343.25
2022-12-29T05:33:56.888Z,97347.66
2022-12-29T05:36:25.155Z,97355.28
2022-12-29T05:38:53.410Z,97349.09
2022-12-29T05:41:21.891Z,97353.38
2022-12-29T05:43:50.207Z,97351.50
2022-12-29T05:46:18.504Z,97359.09
2022-12-29T05:48:46.892Z,97360.69
2022-12-29T05:51:16.470Z,97356.13
2022-12-29T05:53:46.618Z,97360.31
2022-12-29T05:56:14.899Z,97351.38
2022-12-29T05:58:43.178Z,97343.50
2022-12-29T06:01:11.423Z,97337.03
2022-12-29T06:03:44.506Z,97348.25
2022-12-29T06:06:17.689Z,97343.75
2022-12-29T06:08:46.062Z,97336.56
2022-12-29T06:11:14.612Z,97345.16
2022-12-29T06:13:43.552Z,97351.97
2022-12-29T06:16:11.867Z,97348.28
2022-12-29T06:18:40.194Z,97344.69
2022-12-29T06:21:09.064Z,97340.16
2022-12-29T06:23:38.679Z,97339.06
2022-12-29T06:26:07.162Z,97341.59
2022-12-29T06:28:35.428Z,97343.13
2022-12-29T06:31:04.024Z,97341.34
2022-12-29T06:33:32.561Z,97339.44
2022-12-29T06:36:00.783Z,97336.69
2022-12-29T06:38:29.114Z,97335.72
2022-12-29T06:40:58.691Z,97331.19
2022-12-29T06:43:26.948Z,97330.22
2022-12-29T06:45:55.288Z,97326.63
2022-12-29T06:48:24.521Z,97332.75
2022-12-29T06:50:52.774Z,97323.91
2022-12-29T06:53:21.022Z,97329.88
2022-12-29T06:55:49.310Z,97347.28
2022-12-29T06:58:18.948Z,97344.53
2022-12-29T07:00:47.280Z,97346.22
2022-12-29T07:03:15.598Z,97351.34
2022-12-29T07:05:43.910Z,97353.03
2022-12-29T07:08:12.193Z,97364.25
2022-12-29T07:10:40.558Z,97361.50
2022-12-29T07:13:09.201Z,97364.00
2022-12-29T07:15:39.242Z,97378.72
2022-12-29T07:18:07.683Z,97374.03
2022-12-29T07:20:36.161Z,97383.59
2022-12-29T07:23:05.086Z,97373.78
2022-12-29T07:25:33.354Z,97377.97
2022-12-29T07:28:01.618Z,97381.31
2022-12-29T07:30:29.879Z,97389.81
2022-12-29T07:32:59.591Z,97387.91
2022-12-29T07:35:27.851Z,97385.06
2022-12-29T07:37:56.118Z,97392.81
2022-12-29T07:40:24.413Z,97382.88
2022-12-29T07:42:52.716Z,97399.25
2022-12-29T07:45:20.950Z,97394.72
2022-12-29T07:47:51.049Z,97396.25
2022-12-29T07:50:20.692Z,97397.66
2022-12-29T07:52:49.010Z,97402.94
2022-12-29T07:55:17.640Z,97401.84
2022-12-29T07:57:46.073Z,97407.69
2022-12-29T08:00:16.210Z,97408.41
2022-12-29T08:02:44.568Z,97409.09
2022-12-29T08:05:12.914Z,97415.09
2022-12-29T08:07:42.585Z,97407.81
2022-12-29T08:10:11.172Z,97409.34
2022-12-29T08:12:41.010Z,97411.72
2022-12-29T08:15:11.799Z,97408.97
2022-12-29T08:17:40.684Z,97399.84
2022-12-29T08:20:10.788Z,97405.84
2022-12-29T08:22:39.143Z,97404.63
2022-12-29T08:25:10.093Z,97400.09
2022-12-29T08:27:38.429Z,97396.38
2022-12-29T08:30:08.441Z,97401.63
2022-12-29T08:32:36.712Z,97397.66
2022-12-29T08:35:05.603Z,97398.38
2022-12-29T08:37:34.980Z,97388.56
2022-12-29T08:40:04.968Z,97385.09
2022-12-29T08:42:34.931Z,97391.63
2022-12-29T08:45:03.836Z,97398.34
2022-12-29T08:47:32.140Z,97401.66
2022-12-29T08:50:00.397Z,97405.84
2022-12-29T08:52:28.673Z,97408.09
2022-12-29T08:54:56.985Z,97402.72
2022-12-29T08:57:25.915Z,97404.25
2022-12-29T08:59:55.515Z,97398.84
2022-12-29T09:02:24.502Z,97399.69
2022-12-29T09:04:53.424Z,97384.59
2022-12-29T09:07:21.755Z,97391.56
2022-12-29T09:09:50.048Z,97394.75
2022-12-29T09:12:19.176Z,97388.41
2022-12-29T09:14:48.615Z,97379.41
2022-12-29T09:17:35.889Z,97377.94
2022-12-29T09:20:04.399Z,97383.66
2022-12-29T09:22:32.750Z,97387.31
2022-12-29T09:25:01.007Z,97382.22
2022-12-29T09:27:29.237Z,97382.25
2022-12-29T09:29:57.660Z,97380.53
2022-12-29T09:32:31.208Z,97384.06
2022-12-29T09:35:01.896Z,97388.53
2022-12-29T09:37:30.301Z,97389.16
2022-12-29T09:39:58.531Z,97385.59
2022-12-29T09:42:34.335Z,97385.59
2022-12-29T09:45:13.332Z,97376.22
2022-12-29T09:47:43.991Z,97376.69
2022-12-29T09:50:25.279Z,97371.16
2022-12-29T09:52:59.906Z,97359.34
2022-12-29T09:55:37.978Z,97363.06
2022-12-29T09:58:12.236Z,97369.41
2022-12-29T10:00:55.196Z,97372.16
2022-12-29T10:03:30.239Z,97356.63
2022-12-29T10:06:10.406Z,97351.63
2022-12-29T10:08:44.536Z,97349.13
2022-12-29T10:11:33.151Z,97346.25
2022-12-29T10:14:23.559Z,97342.84
2022-12-29T10:17:01.048Z,97349.03
2022-12-29T10:19:52.289Z,97357.06
2022-12-29T10:22:43.614Z,97339.34
2022-12-29T10:25:18.586Z,97331.53
2022-12-29T10:27:50.649Z,97327.78
2022-12-29T10:30:20.231Z,97330.34
2022-12-29T10:32:54.411Z,97330.19
2022-12-29T10:35:26.976Z,97327.06
2022-12-29T10:38:04.539Z,97318.91
2022-12-29T10:40:40.941Z,97313.59
2022-12-29T10:43:24.652Z,97315.59
2022-12-29T10:45:54.883Z,97298.75
2022-12-29T10:48:31.795Z,97303.53
2022-12-29T10:51:05.320Z,97298.66
2022-12-29T10:53:42.607Z,97304.44
2022-12-29T10:56:29.998Z,97280.13
2022-12-29T10:59:02.575Z,97286.88
2022-12-29T11:01:40.107Z,97274.72
2022-12-29T11:04:29.208Z,97279.84
2022-12-29T11:06:59.629Z,97286.97
2022-12-29T11:09:41.890Z,97281.91
2022-12-29T11:12:25.622Z,97277.72
2022-12-29T11:15:16.891Z,97284.72
2022-12-29T11:17:51.589Z,97271.22
2022-12-29T11:20:36.523Z,97269.22
2022-12-29T11:23:23.266Z,97270.84
2022-12-29T11:26:19.907Z,97284.63
2022-12-29T11:28:50.365Z,97270.97
2022-12-29T11:31:21.384Z,97275.13
2022-12-29T11:33:49.866Z,97277.44
2022-12-29T11:36:22.994Z,97267.06
2022-12-29T11:38:55.991Z,97259.53
2022-12-29T11:41:27.643Z,97256.50
2022-12-29T11:43:58.208Z,97260.03
2022-12-29T11:46:30.709Z,97259.66
2022-12-29T11:49:01.659Z,97261.97
2022-12-29T11:51:36.385Z,97266.94
2022-12-29T11:54:08.300Z,97252.47
2022-12-29T11:56:41.525Z,97260.28
2022-12-29T11:59:42.698Z,97257.00
2022-12-29T12:02:42.981Z,97257.97
2022-12-29T12:05:32.056Z,97263.50
2022-12-29T12:08:10.212Z,97248.69
2022-12-29T12:10:47.010Z,97263.22
2022-12-29T12:13:25.071Z,97252.91
2022-12-29T12:16:01.699Z,97251.94
2022-12-29T12:18:41.496Z,97251.66
2022-12-29T12:21:21.047Z,97239.59
2022-12-29T12:24:24.416Z,97242.97
2022-12-29T12:27:03.342Z,97247.28
2022-12-29T12:29:42.231Z,97240.47
2022-12-29T12:32:18.968Z,97239.72
2022-12-29T12:34:48.797Z,97243.06
2022-12-29T12:37:45.185Z,97231.59
2022-12-29T12:40:45.471Z,97232.59
2022-12-29T12:43:41.947Z,97229.44
2022-12-29T12:46:31.626Z,97224.44
2022-12-29T12:49:32.527Z,97225.47
2022-12-29T12:52:12.638Z,97226.78
2022-12-29T12:55:03.091Z,97221.63
2022-12-29T12:57:51.632Z,97226.44
2022-12-29T13:00:24.419Z,97213.47
2022-12-29T13:03:07.432Z,97229.09
2022-12-29T13:06:08.217Z,97225.13
2022-12-29T13:09:08.680Z,97218.44
2022-12-29T13:11:54.047Z,97221.63
2022-12-29T13:14:40.285Z,97218.34
2022-12-29T13:17:20.490Z,97223.84
2022-12-29T13:19:56.264Z,97215.53
2022-12-29T13:22:33.136Z,97218.03
2022-12-29T13:25:25.172Z,97229.22
2022-12-29T13:28:02.592Z,97233.72
2022-12-29T13:30:36.577Z,97228.41
2022-12-29T13:33:21.158Z,97232.88
2022-12-29T13:36:03.448Z,97235.06
2022-12-29T13:38:38.652Z,97231.94
2022-12-29T13:41:11.336Z,97238.41
2022-12-29T13:43:44.175Z,97239.44
2022-12-29T13:46:19.413Z,97242.09
2022-12-29T13:48:54.440Z,97236.28
2022-12-29T13:51:28.190Z,97233.78
2022-12-29T13:54:15.008Z,97239.63
2022-12-29T13:56:52.167Z,97231.97
2022-12-29T13:59:28.698Z,97243.47
2022-12-29T14:02:02.563Z,97237.13
2022-12-29T14:04:34.329Z,97243.47
2022-12-29T14:07:06.104Z,97247.78
2022-12-29T14:09:48.749Z,97243.47
2022-12-29T14:12:37.062Z,97246.13
2022-12-29T14:15:16.862Z,97245.13
2022-12-29T14:17:46.456Z,97245.97
2022-12-29T14:20:24.810Z,97239.78
2022-12-29T14:23:02.097Z,97232.66
2022-12-29T14:25:58.147Z,97241.66
2022-12-29T14:28:28.998Z,97240.81
2022-12-29T14:30:59.368Z,97238.16
2022-12-29T14:33:32.146Z,97233.84
2022-12-29T14:36:22.741Z,97237.66
2022-12-29T14:38:51.278Z,97244.22
2022-12-29T14:41:32.904Z,97248.19
2022-12-29T14:44:19.968Z,97249.56
2022-12-29T14:46:58.476Z,97248.94
2022-12-29T14:49:30.799Z,97251.59
2022-12-29T14:52:16.375Z,97252.78
2022-12-29T14:54:56.484Z,97249.44
2022-12-29T14:57:32.302Z,97246.97
2022-12-29T15:00:09.945Z,97244.28
2022-12-29T15:02:43.199Z,97245.31
2022-12-29T15:05:33.056Z,97248.13
2022-12-29T15:08:05.046Z,97252.78
2022-12-29T15:10:43.863Z,97254.94
2022-12-29T15:13:20.472Z,97258.09
2022-12-29T15:15:48.835Z,97261.13
2022-12-29T15:18:26.432Z,97261.44
2022-12-29T15:20:58.214Z,97259.63
2022-12-29T15:23:28.707Z,97263.41
2022-12-29T15:25:59.806Z,97267.44
2022-12-29T15:28:29.898Z,97267.09
2022-12-29T15:31:06.140Z,97258.81
2022-12-29T15:33:42.681Z,97263.94
2022-12-29T15:36:15.407Z,97266.41
2022-12-29T15:38:45.108Z,97256.28
2022-12-29T15:41:28.342Z,97253.84
2022-12-29T15:44:11.794Z,97266.44
2022-12-29T15:46:41.625Z,97270.09
2022-12-29T15:49:11.724Z,97279.03
2022-12-29T15:51:41.734Z,97272.25
2022-12-29T15:54:19.603Z,97272.25
2022-12-29T15:56:48.299Z,97272.09
2022-12-29T15:59:27.528Z,97272.25
2022-12-29T16:01:57.299Z,97274.06
2022-12-29T16:04:28.549Z,97270.59
2022-12-29T16:07:00.280Z,97273.41
2022-12-29T16:09:35.997Z,97277.72
2022-12-29T16:12:09.057Z,97274.22
2022-12-29T16:14:45.281Z,97264.44
2022-12-29T16:17:20.412Z,97264.44
2022-12-29T16:19:53.498Z,97262.63
2022-12-29T16:22:29.342Z,97260.94
2022-12-29T16:25:05.122Z,97263.78
2022-12-29T16:27:38.573Z,97260.47
2022-12-29T16:30:18.848Z,97263.44
2022-12-29T16:32:49.798Z,97259.44
2022-12-29T16:35:22.176Z,97265.09
2022-12-29T16:37:51.700Z,97269.59
2022-12-29T16:40:31.486Z,97274.38
2022-12-29T16:43:02.369Z,97272.91
2022-12-29T16:46:24.595Z,97271.69
2022-12-29T16:48:58.374Z,97277.19
2022-12-29T16:51:33.222Z,97271.88
2022-12-29T16:54:02.279Z,97279.03
2022-12-29T16:56:35.670Z,97282.66
2022-12-29T16:59:07.083Z,97284.34
2022-12-29T17:01:38.622Z,97285.31
2022-12-29T17:04:11.152Z,97281.16
2022-12-29T17:06:40.257Z,97292.78
2022-12-29T17:09:20.533Z,97299.06
2022-12-29T17:12:05.410Z,97297.25
2022-12-29T17:14:45.433Z,97300.22
2022-12-29T17:17:20.451Z,97296.56
2022-12-29T17:19:53.286Z,97291.94
2022-12-29T17:22:26.271Z,97297.94
2022-12-29T17:24:55.638Z,97297.59
2022-12-29T17:27:32.948Z,97302.59
2022-12-29T17:30:05.198Z,97298.78
2022-12-29T17:32:34.491Z,97303.75
2022-12-29T17:35:02.825Z,97305.25
2022-12-29T17:37:38.017Z,97304.13
2022-12-29T17:40:10.263Z,97294.81
2022-12-29T17:42:45.772Z,97295.50
2022-12-29T17:45:20.137Z,97297.31
2022-12-29T17:47:48.744Z,97300.13
2022-12-29T17:50:20.047Z,97298.16
2022-12-29T17:52:55.308Z,97300.81
2022-12-29T17:55:34.765Z,97294.81
2022-12-29T17:58:18.904Z,97292.66
2022-12-29T18:00:48.655Z,97295.47
2022-12-29T18:03:18.466Z,97297.44
2022-12-29T18:05:47.100Z,97293.31
2022-12-29T18:08:15.462Z,97281.84
2022-12-29T18:10:44.510Z,97283.00
2022-12-29T18:13:22.528Z,97276.38
2022-12-29T18:15:51.474Z,97269.69
2022-12-29T18:18:22.513Z,97257.75
2022-12-29T18:20:52.997Z,97271.34
2022-12-29T18:23:26.435Z,97277.84
2022-12-29T18:25:59.904Z,97275.81
2022-12-29T18:28:30.234Z,97281.44
2022-12-29T18:31:01.156Z,97292.56
2022-12-29T18:33:31.323Z,97285.75
2022-12-29T18:36:02.832Z,97283.09
2022-12-29T18:38:31.379Z,97284.06
2022-12-29T18:41:00.508Z,97280.44
2022-12-29T18:43:30.834Z,97283.25
2022-12-29T18:45:59.245Z,97281.56
2022-12-29T18:48:28.120Z,97288.72
2022-12-29T18:50:56.594Z,97295.28
2022-12-29T18:53:26.622Z,97285.69
2022-12-29T18:55:57.478Z,97299.13
2022-12-29T18:58:32.265Z,97296.78
2022-12-29T19:01:04.013Z,97291.78
2022-12-29T19:03:32.870Z,97290.31
2022-12-29T19:06:01.450Z,97294.94
2022-12-29T19:08:29.946Z,97299.72
2022-12-29T19:10:58.315Z,97298.06
2022-12-29T19:13:29.459Z,97294.72
2022-12-29T19:15:58.401Z,97306.31
2022-12-29T19:18:47.640Z,97305.69
2022-12-29T19:21:20.065Z,97302.50
2022-12-29T19:23:48.816Z,97308.81
2022-12-29T19:26:31.265Z,97305.47
2022-12-29T19:29:00.934Z,97304.63
2022-12-29T19:31:29.749Z,97301.31
2022-12-29T19:33:59.860Z,97301.47
2022-12-29T19:36:28.119Z,97308.59
2022-12-29T19:38:57.036Z,97304.28
2022-12-29T19:41:25.740Z,97305.25
2022-12-29T19:43:54.086Z,97306.25
2022-12-29T19:46:23.379Z,97302.91
2022-12-29T19:48:51.756Z,97309.22
2022-12-29T19:51:24.573Z,97307.03
2022-12-29T19:53:52.919Z,97310.69
2022-12-29T19:56:21.278Z,97303.22
2022-12-29T19:58:50.602Z,97307.16
2022-12-29T20:01:22.666Z,97308.47
2022-12-29T20:03:52.837Z,97308.63
2022-12-29T20:06:21.338Z,97313.75
2022-12-29T20:08:50.961Z,97305.81
2022-12-29T20:11:20.727Z,97306.66
2022-12-29T20:13:49.192Z,97309.47
2022-12-29T20:16:20.089Z,97316.72
2022-12-29T20:18:49.540Z,97323.50
2022-12-29T20:21:21.915Z,97320.16
2022-12-29T20:23:52.618Z,97314.69
2022-12-29T20:26:26.664Z,97311.53
2022-12-29T20:28:57.485Z,97305.09
2022-12-29T20:31:29.070Z,97306.09
2022-12-29T20:33:58.708Z,97309.84
2022-12-29T20:36:30.185Z,97308.06
2022-12-29T20:39:05.319Z,97311.84
2022-12-29T20:41:34.196Z,97312.81
2022-12-29T20:44:05.228Z,97306.88
2022-12-29T20:46:43.066Z,97305.88
2022-12-29T20:49:12.319Z,97305.50
2022-12-29T20:54:38.663Z,97316.72
2022-12-29T20:57:08.174Z,97323.16
2022-12-29T20:59:36.524Z,97326.81
2022-12-29T21:02:05.213Z,97327.13
2022-12-29T21:04:57.738Z,97329.91
2022-12-29T21:07:22.075Z,97329.06
2022-12-29T21:09:51.811Z,97321.13
2022-12-29T21:12:20.131Z,97316.50
2022-12-29T21:14:48.396Z,97314.31
2022-12-29T21:17:16.730Z,97320.91
2022-12-29T21:19:45.037Z,97312.13
2022-12-29T21:22:13.383Z,97310.75
2022-12-29T21:24:41.670Z,97300.31
2022-12-29T21:27:11.329Z,97306.75
2022-12-29T21:29:39.573Z,97313.06
2022-12-29T21:32:07.921Z,97310.03
2022-12-29T21:34:36.479Z,97301.56
2022-12-29T21:37:04.810Z,97285.53
2022-12-29T21:39:33.073Z,97299.03
2022-12-29T21:42:02.649Z,97302.81
2022-12-29T21:44:49.820Z,97306.59
2022-12-29T21:47:18.150Z,97307.91
2022-12-29T21:49:46.425Z,97305.72
2022-12-29T21:52:13.778Z,97306.38
2022-12-29T21:54:59.335Z,97301.38
2022-12-29T21:57:44.989Z,97302.22
2022-12-29T22:00:34.237Z,97312.97
2022-12-29T22:03:23.467Z,97305.47
2022-12-29T22:06:10.292Z,97313.56
2022-12-29T22:08:56.340Z,97318.88
2022-12-29T22:11:42.081Z,97314.09
2022-12-29T22:14:10.452Z,97313.97
2022-12-29T22:16:40.680Z,97315.59
2022-12-29T22:19:10.616Z,97312.81
2022-12-29T22:21:38.936Z,97315.75
2022-12-29T22:24:08.718Z,97306.16
2022-12-29T22:26:36.998Z,97302.81
2022-12-29T22:29:05.252Z,97302.97
2022-12-29T22:31:33.889Z,97312.06
2022-12-29T22:34:05.203Z,97313.31
2022-12-29T22:36:34.108Z,97326.72
2022-12-29T22:39:02.481Z,97334.44
2022-12-29T22:41:30.848Z,97328.31
2022-12-29T22:43:59.251Z,97341.19
2022-12-29T22:46:27.749Z,97342.97
2022-12-29T22:48:58.028Z,97347.56
2022-12-29T22:51:27.780Z,97343.44
2022-12-29T22:53:56.119Z,97341.78
2022-12-29T22:56:24.575Z,97348.03
2022-12-29T22:58:52.941Z,97363.91
2022-12-29T23:01:22.710Z,97363.75
2022-12-29T23:03:51.515Z,97358.63
2022-12-29T23:06:19.963Z,97369.91
2022-12-29T23:08:49.728Z,97376.69
2022-12-29T23:11:18.188Z,97375.75
2022-12-29T23:13:46.938Z,97370.16
2022-12-29T23:16:16.478Z,97384.03
2022-12-29T23:18:46.765Z,97387.25
2022-12-29T23:21:16.295Z,97390.53
2022-12-29T23:23:57.551Z,97396.53
2022-12-29T23:26:30.971Z,97393.75
2022-12-29T23:29:00.772Z,97398.75
2022-12-29T23:31:30.720Z,97397.59
2022-12-29T23:33:59.403Z,97405.38
2022-12-29T23:36:28.421Z,97407.22
2022-12-29T23:38:57.332Z,97403.44
2022-12-29T23:41:28.166Z,97418.03
2022-12-29T23:43:56.952Z,97421.53
2022-12-29T23:46:28.755Z,97426.69
2022-12-29T23:48:57.543Z,97424.72
2022-12-29T23:51:26.311Z,97433.47
2022-12-29T23:53:54.700Z,97432.66
2022-12-29T23:56:26.300Z,97431.69
2022-12-29T23:58:55.564Z,97432.53
